sensor_id;sensor_type;location;lat;lon;timestamp;temperature;humidity
68977;SHT31;56029;52.568;13.588;2023-05-10T00:00:33;10.20;72.30
68977;SHT31;56029;52.568;13.588;2023-05-10T00:03:09;10.14;72.52
68977;SHT31;56029;52.568;13.588;2023-05-10T00:05:35;10.07;72.94
68977;SHT31;56029;52.568;13.588;2023-05-10T00:08:00;10.07;72.92
68977;SHT31;56029;52.568;13.588;2023-05-10T00:10:26;10.08;72.93
68977;SHT31;56029;52.568;13.588;2023-05-10T00:12:52;10.07;73.20
68977;SHT31;56029;52.568;13.588;2023-05-10T00:15:17;10.04;73.29
68977;SHT31;56029;52.568;13.588;2023-05-10T00:17:43;10.00;73.57
68977;SHT31;56029;52.568;13.588;2023-05-10T00:20:09;9.96;73.82
68977;SHT31;56029;52.568;13.588;2023-05-10T00:22:34;9.97;73.71
68977;SHT31;56029;52.568;13.588;2023-05-10T00:25:01;10.01;73.60
68977;SHT31;56029;52.568;13.588;2023-05-10T00:27:26;9.96;73.92
68977;SHT31;56029;52.568;13.588;2023-05-10T00:29:52;9.90;74.55
68977;SHT31;56029;52.568;13.588;2023-05-10T00:32:17;9.93;73.95
68977;SHT31;56029;52.568;13.588;2023-05-10T00:34:43;9.91;74.17
68977;SHT31;56029;52.568;13.588;2023-05-10T00:37:08;9.94;74.00
68977;SHT31;56029;52.568;13.588;2023-05-10T00:39:34;9.91;74.14
68977;SHT31;56029;52.568;13.588;2023-05-10T00:41:59;9.97;74.07
68977;SHT31;56029;52.568;13.588;2023-05-10T00:44:25;10.01;73.98
68977;SHT31;56029;52.568;13.588;2023-05-10T00:46:51;9.96;74.07
68977;SHT31;56029;52.568;13.588;2023-05-10T00:49:17;9.97;74.11
68977;SHT31;56029;52.568;13.588;2023-05-10T00:51:44;9.90;74.33
68977;SHT31;56029;52.568;13.588;2023-05-10T00:54:14;9.91;74.46
68977;SHT31;56029;52.568;13.588;2023-05-10T00:56:40;9.85;74.89
68977;SHT31;56029;52.568;13.588;2023-05-10T00:59:08;9.82;74.74
68977;SHT31;56029;52.568;13.588;2023-05-10T01:01:34;9.83;74.68
68977;SHT31;56029;52.568;13.588;2023-05-10T01:04:00;9.91;74.53
68977;SHT31;56029;52.568;13.588;2023-05-10T01:06:26;9.90;74.46
68977;SHT31;56029;52.568;13.588;2023-05-10T01:08:52;9.85;74.59
68977;SHT31;56029;52.568;13.588;2023-05-10T01:11:17;9.89;74.52
68977;SHT31;56029;52.568;13.588;2023-05-10T01:13:47;9.87;74.68
68977;SHT31;56029;52.568;13.588;2023-05-10T01:16:17;9.83;74.84
68977;SHT31;56029;52.568;13.588;2023-05-10T01:18:42;9.77;74.88
68977;SHT31;56029;52.568;13.588;2023-05-10T01:21:19;9.77;75.03
68977;SHT31;56029;52.568;13.588;2023-05-10T01:27:06;9.67;75.31
68977;SHT31;56029;52.568;13.588;2023-05-10T01:29:59;9.67;75.19
68977;SHT31;56029;52.568;13.588;2023-05-10T01:35:21;9.72;75.11
68977;SHT31;56029;52.568;13.588;2023-05-10T01:37:52;9.69;75.44
68977;SHT31;56029;52.568;13.588;2023-05-10T01:40:26;9.60;75.58
68977;SHT31;56029;52.568;13.588;2023-05-10T01:43:00;9.60;75.39
68977;SHT31;56029;52.568;13.588;2023-05-10T01:45:39;9.66;75.18
68977;SHT31;56029;52.568;13.588;2023-05-10T01:48:09;9.65;75.41
68977;SHT31;56029;52.568;13.588;2023-05-10T01:50:37;9.60;75.30
68977;SHT31;56029;52.568;13.588;2023-05-10T01:53:06;9.56;75.48
68977;SHT31;56029;52.568;13.588;2023-05-10T01:55:35;9.55;75.43
68977;SHT31;56029;52.568;13.588;2023-05-10T01:58:07;9.48;75.72
68977;SHT31;56029;52.568;13.588;2023-05-10T02:00:35;9.45;75.72
68977;SHT31;56029;52.568;13.588;2023-05-10T02:03:04;9.45;75.79
68977;SHT31;56029;52.568;13.588;2023-05-10T02:05:32;9.42;75.79
68977;SHT31;56029;52.568;13.588;2023-05-10T02:07:58;9.38;75.64
68977;SHT31;56029;52.568;13.588;2023-05-10T02:10:27;9.36;75.97
68977;SHT31;56029;52.568;13.588;2023-05-10T02:12:53;9.32;75.99
68977;SHT31;56029;52.568;13.588;2023-05-10T02:15:22;9.31;75.92
68977;SHT31;56029;52.568;13.588;2023-05-10T02:17:49;9.29;76.29
68977;SHT31;56029;52.568;13.588;2023-05-10T02:20:15;9.29;75.89
68977;SHT31;56029;52.568;13.588;2023-05-10T02:22:42;9.31;75.80
68977;SHT31;56029;52.568;13.588;2023-05-10T02:25:08;9.25;76.14
68977;SHT31;56029;52.568;13.588;2023-05-10T02:27:36;9.21;76.23
68977;SHT31;56029;52.568;13.588;2023-05-10T02:30:03;9.17;76.30
68977;SHT31;56029;52.568;13.588;2023-05-10T02:32:30;9.21;76.00
68977;SHT31;56029;52.568;13.588;2023-05-10T02:34:57;9.19;76.06
68977;SHT31;56029;52.568;13.588;2023-05-10T02:37:23;9.18;76.01
68977;SHT31;56029;52.568;13.588;2023-05-10T02:39:52;9.14;76.00
68977;SHT31;56029;52.568;13.588;2023-05-10T02:42:20;9.15;76.11
68977;SHT31;56029;52.568;13.588;2023-05-10T02:44:48;9.17;75.88
68977;SHT31;56029;52.568;13.588;2023-05-10T02:47:15;9.12;76.18
68977;SHT31;56029;52.568;13.588;2023-05-10T02:49:41;9.12;75.99
68977;SHT31;56029;52.568;13.588;2023-05-10T02:52:07;9.14;75.85
68977;SHT31;56029;52.568;13.588;2023-05-10T02:54:41;9.17;75.74
68977;SHT31;56029;52.568;13.588;2023-05-10T02:57:10;9.17;75.56
68977;SHT31;56029;52.568;13.588;2023-05-10T02:59:40;9.12;75.70
68977;SHT31;56029;52.568;13.588;2023-05-10T03:02:08;9.17;75.47
68977;SHT31;56029;52.568;13.588;2023-05-10T03:04:34;9.21;75.17
68977;SHT31;56029;52.568;13.588;2023-05-10T03:07:00;9.25;74.81
68977;SHT31;56029;52.568;13.588;2023-05-10T03:09:26;9.22;75.03
68977;SHT31;56029;52.568;13.588;2023-05-10T03:15:12;9.17;75.21
68977;SHT31;56029;52.568;13.588;2023-05-10T03:18:06;9.14;75.54
68977;SHT31;56029;52.568;13.588;2023-05-10T03:20:39;9.11;75.46
68977;SHT31;56029;52.568;13.588;2023-05-10T03:23:12;9.07;75.65
68977;SHT31;56029;52.568;13.588;2023-05-10T03:25:39;9.07;75.61
68977;SHT31;56029;52.568;13.588;2023-05-10T03:28:06;9.11;75.50
68977;SHT31;56029;52.568;13.588;2023-05-10T03:30:33;9.07;75.54
68977;SHT31;56029;52.568;13.588;2023-05-10T03:33:04;9.05;75.65
68977;SHT31;56029;52.568;13.588;2023-05-10T03:35:31;9.05;75.60
68977;SHT31;56029;52.568;13.588;2023-05-10T03:37:56;9.01;75.75
68977;SHT31;56029;52.568;13.588;2023-05-10T03:40:22;9.03;76.10
68977;SHT31;56029;52.568;13.588;2023-05-10T03:42:48;9.00;75.82
68977;SHT31;56029;52.568;13.588;2023-05-10T03:45:13;9.05;75.87
68977;SHT31;56029;52.568;13.588;2023-05-10T03:47:39;9.19;75.39
68977;SHT31;56029;52.568;13.588;2023-05-10T03:50:05;9.49;74.37
68977;SHT31;56029;52.568;13.588;2023-05-10T03:52:31;9.77;73.35
68977;SHT31;56029;52.568;13.588;2023-05-10T03:54:57;9.82;73.15
68977;SHT31;56029;52.568;13.588;2023-05-10T03:57:22;9.82;73.08
68977;SHT31;56029;52.568;13.588;2023-05-10T03:59:48;9.75;73.53
68977;SHT31;56029;52.568;13.588;2023-05-10T04:02:13;9.65;73.94
68977;SHT31;56029;52.568;13.588;2023-05-10T04:04:39;9.50;74.23
68977;SHT31;56029;52.568;13.588;2023-05-10T04:07:04;9.49;74.41
68977;SHT31;56029;52.568;13.588;2023-05-10T04:09:30;9.55;74.05
68977;SHT31;56029;52.568;13.588;2023-05-10T04:11:55;9.46;74.23
68977;SHT31;56029;52.568;13.588;2023-05-10T04:14:21;9.48;74.20
68977;SHT31;56029;52.568;13.588;2023-05-10T04:16:47;9.49;74.11
68977;SHT31;56029;52.568;13.588;2023-05-10T04:19:12;9.53;74.14
68977;SHT31;56029;52.568;13.588;2023-05-10T04:21:38;9.55;73.94
68977;SHT31;56029;52.568;13.588;2023-05-10T04:24:03;9.59;74.32
68977;SHT31;56029;52.568;13.588;2023-05-10T04:26:29;9.90;73.78
68977;SHT31;56029;52.568;13.588;2023-05-10T04:28:55;10.69;71.14
68977;SHT31;56029;52.568;13.588;2023-05-10T04:31:20;11.38;68.88
68977;SHT31;56029;52.568;13.588;2023-05-10T04:33:47;11.91;67.34
68977;SHT31;56029;52.568;13.588;2023-05-10T04:36:12;12.26;66.26
68977;SHT31;56029;52.568;13.588;2023-05-10T04:38:38;12.50;65.15
68977;SHT31;56029;52.568;13.588;2023-05-10T04:41:07;12.76;64.44
68977;SHT31;56029;52.568;13.588;2023-05-10T04:43:33;12.99;63.74
68977;SHT31;56029;52.568;13.588;2023-05-10T04:45:59;13.08;63.62
68977;SHT31;56029;52.568;13.588;2023-05-10T04:48:24;13.14;63.36
68977;SHT31;56029;52.568;13.588;2023-05-10T04:50:50;13.12;63.74
68977;SHT31;56029;52.568;13.588;2023-05-10T04:53:16;12.88;63.88
68977;SHT31;56029;52.568;13.588;2023-05-10T04:55:42;12.67;65.02
68977;SHT31;56029;52.568;13.588;2023-05-10T04:58:07;12.33;65.64
68977;SHT31;56029;52.568;13.588;2023-05-10T05:00:33;12.23;66.45
68977;SHT31;56029;52.568;13.588;2023-05-10T05:02:59;12.33;66.40
68977;SHT31;56029;52.568;13.588;2023-05-10T05:05:25;12.46;65.68
68977;SHT31;56029;52.568;13.588;2023-05-10T05:07:50;12.36;66.17
68977;SHT31;56029;52.568;13.588;2023-05-10T05:10:16;12.19;67.14
68977;SHT31;56029;52.568;13.588;2023-05-10T05:12:42;11.99;67.46
68977;SHT31;56029;52.568;13.588;2023-05-10T05:15:07;11.95;68.01
68977;SHT31;56029;52.568;13.588;2023-05-10T05:17:35;11.96;67.02
68977;SHT31;56029;52.568;13.588;2023-05-10T05:20:00;11.92;68.22
68977;SHT31;56029;52.568;13.588;2023-05-10T05:22:26;11.81;68.18
68977;SHT31;56029;52.568;13.588;2023-05-10T05:24:55;11.82;68.69
68977;SHT31;56029;52.568;13.588;2023-05-10T05:27:20;11.82;68.60
68977;SHT31;56029;52.568;13.588;2023-05-10T05:29:50;11.81;69.33
68977;SHT31;56029;52.568;13.588;2023-05-10T05:32:16;11.83;68.41
68977;SHT31;56029;52.568;13.588;2023-05-10T05:34:44;11.88;68.84
68977;SHT31;56029;52.568;13.588;2023-05-10T05:37:13;11.92;68.89
68977;SHT31;56029;52.568;13.588;2023-05-10T05:39:39;11.96;68.67
68977;SHT31;56029;52.568;13.588;2023-05-10T05:42:05;12.01;68.46
68977;SHT31;56029;52.568;13.588;2023-05-10T05:44:30;12.05;68.86
68977;SHT31;56029;52.568;13.588;2023-05-10T05:46:56;12.11;68.74
68977;SHT31;56029;52.568;13.588;2023-05-10T05:49:21;12.16;69.48
68977;SHT31;56029;52.568;13.588;2023-05-10T05:51:47;12.25;68.37
68977;SHT31;56029;52.568;13.588;2023-05-10T05:54:14;12.34;68.26
68977;SHT31;56029;52.568;13.588;2023-05-10T05:56:40;12.41;68.06
68977;SHT31;56029;52.568;13.588;2023-05-10T05:59:05;12.50;67.68
68977;SHT31;56029;52.568;13.588;2023-05-10T06:01:31;12.59;67.49
68977;SHT31;56029;52.568;13.588;2023-05-10T06:03:56;12.67;68.28
68977;SHT31;56029;52.568;13.588;2023-05-10T06:06:22;12.80;67.91
68977;SHT31;56029;52.568;13.588;2023-05-10T06:08:47;12.83;66.73
68977;SHT31;56029;52.568;13.588;2023-05-10T06:11:13;12.92;66.70
68977;SHT31;56029;52.568;13.588;2023-05-10T06:13:38;13.02;67.25
68977;SHT31;56029;52.568;13.588;2023-05-10T06:16:04;13.12;67.29
68977;SHT31;56029;52.568;13.588;2023-05-10T06:18:30;13.20;67.13
68977;SHT31;56029;52.568;13.588;2023-05-10T06:20:56;13.29;67.10
68977;SHT31;56029;52.568;13.588;2023-05-10T06:23:21;13.42;66.75
68977;SHT31;56029;52.568;13.588;2023-05-10T06:25:47;13.48;67.48
68977;SHT31;56029;52.568;13.588;2023-05-10T06:28:13;13.66;65.23
68977;SHT31;56029;52.568;13.588;2023-05-10T06:30:38;13.71;65.79
68977;SHT31;56029;52.568;13.588;2023-05-10T06:33:04;13.81;65.27
68977;SHT31;56029;52.568;13.588;2023-05-10T06:35:30;13.93;63.95
68977;SHT31;56029;52.568;13.588;2023-05-10T06:37:57;14.00;64.74
68977;SHT31;56029;52.568;13.588;2023-05-10T06:40:22;14.10;65.72
68977;SHT31;56029;52.568;13.588;2023-05-10T06:42:48;14.20;64.29
68977;SHT31;56029;52.568;13.588;2023-05-10T06:45:15;14.22;63.74
68977;SHT31;56029;52.568;13.588;2023-05-10T06:47:40;14.29;65.58
68977;SHT31;56029;52.568;13.588;2023-05-10T06:50:08;14.45;64.32
68977;SHT31;56029;52.568;13.588;2023-05-10T06:52:33;14.56;63.18
68977;SHT31;56029;52.568;13.588;2023-05-10T06:54:59;14.63;63.17
68977;SHT31;56029;52.568;13.588;2023-05-10T06:57:25;14.68;62.42
68977;SHT31;56029;52.568;13.588;2023-05-10T06:59:51;14.72;62.94
68977;SHT31;56029;52.568;13.588;2023-05-10T07:02:17;14.82;62.49
68977;SHT31;56029;52.568;13.588;2023-05-10T07:04:43;14.86;62.93
68977;SHT31;56029;52.568;13.588;2023-05-10T07:07:08;14.96;63.57
68977;SHT31;56029;52.568;13.588;2023-05-10T07:09:34;15.06;62.93
68977;SHT31;56029;52.568;13.588;2023-05-10T07:11:59;15.08;62.13
68977;SHT31;56029;52.568;13.588;2023-05-10T07:14:25;15.19;63.10
68977;SHT31;56029;52.568;13.588;2023-05-10T07:16:50;15.28;62.96
68977;SHT31;56029;52.568;13.588;2023-05-10T07:19:16;15.33;63.17
68977;SHT31;56029;52.568;13.588;2023-05-10T07:21:41;15.41;62.10
68977;SHT31;56029;52.568;13.588;2023-05-10T07:24:08;15.48;62.64
68977;SHT31;56029;52.568;13.588;2023-05-10T07:26:34;15.51;61.95
68977;SHT31;56029;52.568;13.588;2023-05-10T07:29:00;15.59;62.05
68977;SHT31;56029;52.568;13.588;2023-05-10T07:31:25;15.69;61.64
68977;SHT31;56029;52.568;13.588;2023-05-10T07:33:51;15.78;62.08
68977;SHT31;56029;52.568;13.588;2023-05-10T07:36:16;15.81;60.74
68977;SHT31;56029;52.568;13.588;2023-05-10T07:38:42;15.83;61.66
68977;SHT31;56029;52.568;13.588;2023-05-10T07:41:07;15.86;60.44
68977;SHT31;56029;52.568;13.588;2023-05-10T07:43:33;15.95;61.03
68977;SHT31;56029;52.568;13.588;2023-05-10T07:45:58;15.93;60.77
68977;SHT31;56029;52.568;13.588;2023-05-10T07:48:25;16.05;60.90
68977;SHT31;56029;52.568;13.588;2023-05-10T07:50:51;16.09;60.33
68977;SHT31;56029;52.568;13.588;2023-05-10T07:53:17;16.21;60.78
68977;SHT31;56029;52.568;13.588;2023-05-10T07:55:43;16.24;61.42
68977;SHT31;56029;52.568;13.588;2023-05-10T07:58:09;16.39;62.17
68977;SHT31;56029;52.568;13.588;2023-05-10T08:00:34;16.40;60.39
68977;SHT31;56029;52.568;13.588;2023-05-10T08:03:00;16.46;59.60
68977;SHT31;56029;52.568;13.588;2023-05-10T08:05:26;16.56;60.82
68977;SHT31;56029;52.568;13.588;2023-05-10T08:07:51;16.67;60.82
68977;SHT31;56029;52.568;13.588;2023-05-10T08:10:17;16.72;58.57
68977;SHT31;56029;52.568;13.588;2023-05-10T08:12:42;16.79;58.78
68977;SHT31;56029;52.568;13.588;2023-05-10T08:15:08;16.79;59.64
68977;SHT31;56029;52.568;13.588;2023-05-10T08:17:34;16.87;59.33
68977;SHT31;56029;52.568;13.588;2023-05-10T08:20:00;16.91;59.19
68977;SHT31;56029;52.568;13.588;2023-05-10T08:22:25;16.95;60.26
68977;SHT31;56029;52.568;13.588;2023-05-10T08:24:51;17.04;59.05
68977;SHT31;56029;52.568;13.588;2023-05-10T08:27:16;17.08;57.97
68977;SHT31;56029;52.568;13.588;2023-05-10T08:29:42;17.16;59.06
68977;SHT31;56029;52.568;13.588;2023-05-10T08:32:07;17.18;58.70
68977;SHT31;56029;52.568;13.588;2023-05-10T08:34:33;17.25;59.25
68977;SHT31;56029;52.568;13.588;2023-05-10T08:36:58;17.30;57.90
68977;SHT31;56029;52.568;13.588;2023-05-10T08:39:24;17.33;57.47
68977;SHT31;56029;52.568;13.588;2023-05-10T08:41:51;17.40;58.85
68977;SHT31;56029;52.568;13.588;2023-05-10T08:44:19;17.45;58.25
68977;SHT31;56029;52.568;13.588;2023-05-10T08:46:46;17.51;57.53
68977;SHT31;56029;52.568;13.588;2023-05-10T08:49:17;17.57;57.89
68977;SHT31;56029;52.568;13.588;2023-05-10T08:51:50;17.59;57.58
68977;SHT31;56029;52.568;13.588;2023-05-10T08:54:16;17.70;56.91
68977;SHT31;56029;52.568;13.588;2023-05-10T08:56:42;17.74;58.39
68977;SHT31;56029;52.568;13.588;2023-05-10T08:59:08;17.81;56.44
68977;SHT31;56029;52.568;13.588;2023-05-10T09:01:35;17.90;57.08
68977;SHT31;56029;52.568;13.588;2023-05-10T09:04:01;18.00;57.44
68977;SHT31;56029;52.568;13.588;2023-05-10T09:06:28;18.09;56.40
68977;SHT31;56029;52.568;13.588;2023-05-10T09:08:54;18.19;55.68
68977;SHT31;56029;52.568;13.588;2023-05-10T09:11:20;18.15;57.15
68977;SHT31;56029;52.568;13.588;2023-05-10T09:13:48;18.26;57.22
68977;SHT31;56029;52.568;13.588;2023-05-10T09:16:14;18.31;57.09
68977;SHT31;56029;52.568;13.588;2023-05-10T09:18:39;18.45;57.24
68977;SHT31;56029;52.568;13.588;2023-05-10T09:21:05;18.48;55.72
68977;SHT31;56029;52.568;13.588;2023-05-10T09:23:30;18.44;56.02
68977;SHT31;56029;52.568;13.588;2023-05-10T09:26:07;18.46;56.66
68977;SHT31;56029;52.568;13.588;2023-05-10T09:28:33;18.69;57.07
68977;SHT31;56029;52.568;13.588;2023-05-10T09:30:59;18.83;56.49
68977;SHT31;56029;52.568;13.588;2023-05-10T09:33:25;18.87;55.54
68977;SHT31;56029;52.568;13.588;2023-05-10T09:35:51;18.80;55.20
68977;SHT31;56029;52.568;13.588;2023-05-10T09:38:17;18.86;55.66
68977;SHT31;56029;52.568;13.588;2023-05-10T09:40:51;18.89;55.62
68977;SHT31;56029;52.568;13.588;2023-05-10T09:43:20;19.03;56.59
68977;SHT31;56029;52.568;13.588;2023-05-10T09:45:48;19.15;53.79
68977;SHT31;56029;52.568;13.588;2023-05-10T09:48:15;19.03;54.85
68977;SHT31;56029;52.568;13.588;2023-05-10T09:50:40;19.08;57.14
68977;SHT31;56029;52.568;13.588;2023-05-10T09:53:06;19.23;53.90
68977;SHT31;56029;52.568;13.588;2023-05-10T09:58:04;19.30;53.31
68977;SHT31;56029;52.568;13.588;2023-05-10T10:00:50;19.39;55.03
68977;SHT31;56029;52.568;13.588;2023-05-10T10:03:20;19.36;54.61
68977;SHT31;56029;52.568;13.588;2023-05-10T10:05:48;19.45;55.38
68977;SHT31;56029;52.568;13.588;2023-05-10T10:08:14;19.57;55.13
68977;SHT31;56029;52.568;13.588;2023-05-10T10:10:41;19.58;52.83
68977;SHT31;56029;52.568;13.588;2023-05-10T10:13:07;19.52;53.35
68977;SHT31;56029;52.568;13.588;2023-05-10T10:15:34;19.65;54.38
68977;SHT31;56029;52.568;13.588;2023-05-10T10:17:59;19.69;53.56
68977;SHT31;56029;52.568;13.588;2023-05-10T10:20:26;19.75;52.86
68977;SHT31;56029;52.568;13.588;2023-05-10T10:22:52;19.69;52.71
68977;SHT31;56029;52.568;13.588;2023-05-10T10:25:18;19.87;54.96
68977;SHT31;56029;52.568;13.588;2023-05-10T10:30:35;19.90;52.98
68977;SHT31;56029;52.568;13.588;2023-05-10T10:33:17;19.92;52.34
68977;SHT31;56029;52.568;13.588;2023-05-10T10:35:52;19.92;52.16
68977;SHT31;56029;52.568;13.588;2023-05-10T10:38:18;20.00;52.55
68977;SHT31;56029;52.568;13.588;2023-05-10T10:40:44;20.00;53.29
68977;SHT31;56029;52.568;13.588;2023-05-10T10:43:26;20.08;52.04
68977;SHT31;56029;52.568;13.588;2023-05-10T10:46:17;20.26;52.37
68977;SHT31;56029;52.568;13.588;2023-05-10T10:48:51;20.40;53.22
68977;SHT31;56029;52.568;13.588;2023-05-10T10:51:37;20.43;52.48
68977;SHT31;56029;52.568;13.588;2023-05-10T10:54:09;20.47;52.29
68977;SHT31;56029;52.568;13.588;2023-05-10T10:56:35;20.52;52.26
68977;SHT31;56029;52.568;13.588;2023-05-10T10:59:01;20.63;53.17
68977;SHT31;56029;52.568;13.588;2023-05-10T11:01:33;20.74;52.51
68977;SHT31;56029;52.568;13.588;2023-05-10T11:06:31;20.68;51.83
68977;SHT31;56029;52.568;13.588;2023-05-10T11:08:57;20.71;52.65
68977;SHT31;56029;52.568;13.588;2023-05-10T11:11:23;20.74;52.42
68977;SHT31;56029;52.568;13.588;2023-05-10T11:13:49;20.92;53.22
68977;SHT31;56029;52.568;13.588;2023-05-10T11:16:20;20.87;49.54
68977;SHT31;56029;52.568;13.588;2023-05-10T11:18:59;20.87;50.32
68977;SHT31;56029;52.568;13.588;2023-05-10T11:21:28;20.91;51.72
68977;SHT31;56029;52.568;13.588;2023-05-10T11:23:55;21.02;53.42
68977;SHT31;56029;52.568;13.588;2023-05-10T11:26:29;21.13;51.13
68977;SHT31;56029;52.568;13.588;2023-05-10T11:28:55;21.12;49.72
68977;SHT31;56029;52.568;13.588;2023-05-10T11:31:22;21.18;49.61
68977;SHT31;56029;52.568;13.588;2023-05-10T11:33:49;21.18;49.92
68977;SHT31;56029;52.568;13.588;2023-05-10T11:36:17;21.16;51.41
68977;SHT31;56029;52.568;13.588;2023-05-10T11:38:43;21.20;53.21
68977;SHT31;56029;52.568;13.588;2023-05-10T11:41:10;21.32;51.23
68977;SHT31;56029;52.568;13.588;2023-05-10T11:43:37;21.29;50.42
68977;SHT31;56029;52.568;13.588;2023-05-10T11:46:07;21.30;50.95
68977;SHT31;56029;52.568;13.588;2023-05-10T11:48:33;21.29;49.07
68977;SHT31;56029;52.568;13.588;2023-05-10T11:51:00;21.43;51.38
68977;SHT31;56029;52.568;13.588;2023-05-10T11:53:27;21.50;50.37
68977;SHT31;56029;52.568;13.588;2023-05-10T11:55:53;21.60;48.81
68977;SHT31;56029;52.568;13.588;2023-05-10T11:58:18;21.68;49.20
68977;SHT31;56029;52.568;13.588;2023-05-10T12:00:44;21.85;49.60
68977;SHT31;56029;52.568;13.588;2023-05-10T12:03:10;21.90;48.08
68977;SHT31;56029;52.568;13.588;2023-05-10T12:05:37;21.83;48.19
68977;SHT31;56029;52.568;13.588;2023-05-10T12:08:13;21.87;51.23
68977;SHT31;56029;52.568;13.588;2023-05-10T12:10:39;21.87;51.05
68977;SHT31;56029;52.568;13.588;2023-05-10T12:13:05;22.00;48.35
68977;SHT31;56029;52.568;13.588;2023-05-10T12:18:10;22.16;48.49
68977;SHT31;56029;52.568;13.588;2023-05-10T12:20:37;22.31;49.48
68977;SHT31;56029;52.568;13.588;2023-05-10T12:23:03;22.33;49.77
68977;SHT31;56029;52.568;13.588;2023-05-10T12:25:33;22.41;48.41
68977;SHT31;56029;52.568;13.588;2023-05-10T12:28:02;22.43;48.55
68977;SHT31;56029;52.568;13.588;2023-05-10T12:30:30;22.42;49.96
68977;SHT31;56029;52.568;13.588;2023-05-10T12:35:44;22.52;47.21
68977;SHT31;56029;52.568;13.588;2023-05-10T12:38:30;22.45;48.26
68977;SHT31;56029;52.568;13.588;2023-05-10T12:41:04;22.35;46.83
68977;SHT31;56029;52.568;13.588;2023-05-10T12:43:32;22.31;48.24
68977;SHT31;56029;52.568;13.588;2023-05-10T12:45:58;22.31;47.21
68977;SHT31;56029;52.568;13.588;2023-05-10T12:48:23;22.19;48.61
68977;SHT31;56029;52.568;13.588;2023-05-10T12:50:49;22.25;48.85
68977;SHT31;56029;52.568;13.588;2023-05-10T12:53:15;22.31;48.07
68977;SHT31;56029;52.568;13.588;2023-05-10T12:55:42;22.26;48.09
68977;SHT31;56029;52.568;13.588;2023-05-10T12:58:07;22.33;48.24
68977;SHT31;56029;52.568;13.588;2023-05-10T13:00:33;22.48;47.40
68977;SHT31;56029;52.568;13.588;2023-05-10T13:02:58;22.62;48.94
68977;SHT31;56029;52.568;13.588;2023-05-10T13:05:24;22.73;46.42
68977;SHT31;56029;52.568;13.588;2023-05-10T13:07:50;22.72;45.18
68977;SHT31;56029;52.568;13.588;2023-05-10T13:10:16;22.72;47.43
68977;SHT31;56029;52.568;13.588;2023-05-10T13:12:41;22.66;46.89
68977;SHT31;56029;52.568;13.588;2023-05-10T13:15:07;22.59;46.50
68977;SHT31;56029;52.568;13.588;2023-05-10T13:17:33;22.49;45.59
68977;SHT31;56029;52.568;13.588;2023-05-10T13:19:58;22.51;45.01
68977;SHT31;56029;52.568;13.588;2023-05-10T13:22:24;22.63;46.19
68977;SHT31;56029;52.568;13.588;2023-05-10T13:24:50;22.83;45.97
68977;SHT31;56029;52.568;13.588;2023-05-10T13:27:15;22.90;43.87
68977;SHT31;56029;52.568;13.588;2023-05-10T13:29:43;23.07;46.46
68977;SHT31;56029;52.568;13.588;2023-05-10T13:32:08;23.20;45.36
68977;SHT31;56029;52.568;13.588;2023-05-10T13:34:34;23.15;43.82
68977;SHT31;56029;52.568;13.588;2023-05-10T13:37:01;23.12;45.09
68977;SHT31;56029;52.568;13.588;2023-05-10T13:39:27;23.18;43.17
68977;SHT31;56029;52.568;13.588;2023-05-10T13:41:52;23.15;42.86
68977;SHT31;56029;52.568;13.588;2023-05-10T13:44:18;23.14;44.98
68977;SHT31;56029;52.568;13.588;2023-05-10T13:46:43;23.03;44.09
68977;SHT31;56029;52.568;13.588;2023-05-10T13:49:09;23.06;43.24
68977;SHT31;56029;52.568;13.588;2023-05-10T13:51:35;23.04;45.68
68977;SHT31;56029;52.568;13.588;2023-05-10T13:54:04;23.03;43.40
68977;SHT31;56029;52.568;13.588;2023-05-10T13:56:30;23.11;42.05
68977;SHT31;56029;52.568;13.588;2023-05-10T13:58:56;23.15;42.93
68977;SHT31;56029;52.568;13.588;2023-05-10T14:01:22;23.15;42.84
68977;SHT31;56029;52.568;13.588;2023-05-10T14:03:48;23.25;41.88
68977;SHT31;56029;52.568;13.588;2023-05-10T14:06:14;23.37;41.97
68977;SHT31;56029;52.568;13.588;2023-05-10T14:08:40;23.44;42.09
68977;SHT31;56029;52.568;13.588;2023-05-10T14:11:05;23.31;41.43
68977;SHT31;56029;52.568;13.588;2023-05-10T14:13:31;23.27;41.32
68977;SHT31;56029;52.568;13.588;2023-05-10T14:15:56;23.34;42.87
68977;SHT31;56029;52.568;13.588;2023-05-10T14:18:22;23.38;42.69
68977;SHT31;56029;52.568;13.588;2023-05-10T14:20:48;23.34;41.31
68977;SHT31;56029;52.568;13.588;2023-05-10T14:23:14;23.37;41.96
68977;SHT31;56029;52.568;13.588;2023-05-10T14:25:40;23.40;43.61
68977;SHT31;56029;52.568;13.588;2023-05-10T14:28:06;23.48;41.52
68977;SHT31;56029;52.568;13.588;2023-05-10T14:30:31;23.42;42.24
68977;SHT31;56029;52.568;13.588;2023-05-10T14:33:02;23.45;41.97
68977;SHT31;56029;52.568;13.588;2023-05-10T14:35:28;23.45;40.96
68977;SHT31;56029;52.568;13.588;2023-05-10T14:37:56;23.44;41.76
68977;SHT31;56029;52.568;13.588;2023-05-10T14:40:22;23.38;41.59
68977;SHT31;56029;52.568;13.588;2023-05-10T14:42:48;23.42;40.92
68977;SHT31;56029;52.568;13.588;2023-05-10T14:45:13;23.51;41.41
68977;SHT31;56029;52.568;13.588;2023-05-10T14:47:39;23.61;42.92
68977;SHT31;56029;52.568;13.588;2023-05-10T14:50:05;23.62;44.54
68977;SHT31;56029;52.568;13.588;2023-05-10T14:52:31;23.49;42.34
68977;SHT31;56029;52.568;13.588;2023-05-10T14:54:56;23.58;40.34
68977;SHT31;56029;52.568;13.588;2023-05-10T14:57:24;23.55;40.54
68977;SHT31;56029;52.568;13.588;2023-05-10T14:59:49;23.47;40.74
68977;SHT31;56029;52.568;13.588;2023-05-10T15:02:15;23.59;42.75
68977;SHT31;56029;52.568;13.588;2023-05-10T15:04:41;23.65;43.29
68977;SHT31;56029;52.568;13.588;2023-05-10T15:07:07;23.70;41.55
68977;SHT31;56029;52.568;13.588;2023-05-10T15:09:32;23.61;41.95
68977;SHT31;56029;52.568;13.588;2023-05-10T15:11:58;23.61;41.33
68977;SHT31;56029;52.568;13.588;2023-05-10T15:14:23;23.68;40.22
68977;SHT31;56029;52.568;13.588;2023-05-10T15:16:49;23.70;42.13
68977;SHT31;56029;52.568;13.588;2023-05-10T15:19:14;23.76;40.85
68977;SHT31;56029;52.568;13.588;2023-05-10T15:21:40;23.75;41.69
68977;SHT31;56029;52.568;13.588;2023-05-10T15:24:08;23.62;39.40
68977;SHT31;56029;52.568;13.588;2023-05-10T15:26:34;23.66;41.44
68977;SHT31;56029;52.568;13.588;2023-05-10T15:28:59;23.69;39.68
68977;SHT31;56029;52.568;13.588;2023-05-10T15:31:25;23.69;40.22
68977;SHT31;56029;52.568;13.588;2023-05-10T15:33:50;23.76;40.36
68977;SHT31;56029;52.568;13.588;2023-05-10T15:36:16;23.75;39.64
68977;SHT31;56029;52.568;13.588;2023-05-10T15:38:43;23.86;40.90
68977;SHT31;56029;52.568;13.588;2023-05-10T15:41:09;23.98;41.34